Terminal Aerodrome Forecast
Issued by NWS Jackson, KY

Home | Current Version | Previous Version | Text Only | Print | Product List | Glossary On
Versions: 1 2 3 4 5 6 7 8 9 10 11 12 13 14 15 16 17
000
FTUS43 KJKL 290715 AAA
TAFLOZ
TAF AMD
KLOZ 290715Z 2907/3006 00000KT 1/2SM FG VV001
      TEMPO 2907/2911 3SM BR SCT003
     FM291230 00000KT 2SM BR SCT006
     FM291330 VRB03KT P6SM SCT015
     FM291500 VRB03KT P6SM VCTS BKN020CB
     FM291800 30003KT P6SM VCTS SCT035CB
     FM300100 00000KT P6SM SCT250=

USA.gov is the U.S. government's official web portal to all federal, state and local government web resources and services.